Time;durP1;ratioP1;P1;durP2;ratioP2;P2;SDS_P1;SDS_P2;PMS_P1;PMS_P2;Temp;Humidity;BMP_temperature;BMP_pressure;BME280_temperature;BME280_humidity;BME280_pressure;Samples;Min_cycle;Max_cycle;Signal;HPM_P1;HPM_P2
2022/06/23 00:00:47;;;;;;;25.45;4.25;;;;;;;;;;5049657;28;20053;-61
2022/06/23 00:03:19;;;;;;;15.52;3.40;;;;;;;;;;5066840;28;20024;-61
2022/06/23 00:05:49;;;;;;;21.90;4.20;;;;;;;;;;5064345;28;20044;-59
2022/06/23 00:08:16;;;;;;;25.67;4.10;;;;;;;;;;5057714;28;20052;-59
2022/06/23 00:10:47;;;;;;;22.77;3.92;;;;;;;;;;5059081;28;20031;-62
2022/06/23 00:13:14;;;;;;;28.42;3.85;;;;;;;;;;5059902;28;20052;-59
2022/06/23 00:15:42;;;;;;;20.85;3.97;;;;;;;;;;5058134;28;20025;-59
2022/06/23 00:18:19;;;;;;;19.80;4.43;;;;;;;;;;5058162;28;20028;-61
2022/06/23 00:20:55;;;;;;;16.92;3.67;;;;;;;;;;5054802;28;20081;-60
2022/06/23 00:23:34;;;;;;;18.60;3.40;;;;;;;;;;5049952;28;20040;-58
2022/06/23 00:26:03;;;;;;;25.98;4.00;;;;;;;;;;5053345;28;20033;-58
2022/06/23 00:28:37;;;;;;;25.10;3.80;;;;;;;;;;5045274;28;21072;-57
2022/06/23 00:31:06;;;;;;;20.85;3.50;;;;;;;;;;5049724;28;20032;-60
2022/06/23 00:33:40;;;;;;;23.75;3.80;;;;;;;;;;5049981;28;20032;-60
2022/06/23 00:36:19;;;;;;;22.00;3.58;;;;;;;;;;5048355;28;20021;-61
2022/06/23 00:38:46;;;;;;;22.40;4.45;;;;;;;;;;5048387;28;20040;-57
2022/06/23 00:41:18;;;;;;;19.58;3.65;;;;;;;;;;5051931;28;20045;-60
2022/06/23 00:43:50;;;;;;;23.95;3.97;;;;;;;;;;5056873;28;20090;-60
2022/06/23 00:46:20;;;;;;;22.52;3.60;;;;;;;;;;5058414;28;20033;-58
2022/06/23 00:48:51;;;;;;;18.60;4.32;;;;;;;;;;5056458;28;20032;-61
2022/06/23 00:51:33;;;;;;;18.83;3.63;;;;;;;;;;5060181;28;20374;-58
2022/06/23 00:54:03;;;;;;;21.80;4.45;;;;;;;;;;5059156;28;20181;-62
2022/06/23 00:56:33;;;;;;;13.98;3.47;;;;;;;;;;5056638;28;20032;-58
2022/06/23 00:59:00;;;;;;;18.23;3.67;;;;;;;;;;5060615;28;20025;-64
2022/06/23 01:01:43;;;;;;;19.33;3.33;;;;;;;;;;5062509;28;20036;-59
2022/06/23 01:04:23;;;;;;;21.75;3.80;;;;;;;;;;5042357;28;20667;-62
2022/06/23 01:06:53;;;;;;;20.38;4.22;;;;;;;;;;5063894;28;20032;-61
2022/06/23 01:09:34;;;;;;;18.33;3.78;;;;;;;;;;5060861;28;20481;-59
2022/06/23 01:12:03;;;;;;;16.35;4.22;;;;;;;;;;5057393;28;20564;-61
2022/06/23 01:14:35;;;;;;;20.52;3.72;;;;;;;;;;5052454;28;20032;-57
2022/06/23 01:17:06;;;;;;;14.02;4.53;;;;;;;;;;5059362;28;20094;-61
2022/06/23 01:19:33;;;;;;;28.67;6.72;;;;;;;;;;5043946;28;20104;-58
2022/06/23 01:22:03;;;;;;;37.95;10.93;;;;;;;;;;5066360;28;20094;-58
2022/06/23 01:24:39;;;;;;;46.03;15.88;;;;;;;;;;5073345;28;20040;-58
2022/06/23 01:27:14;;;;;;;53.40;17.90;;;;;;;;;;5072665;28;20037;-58
2022/06/23 01:30:19;;;;;;;58.08;21.02;;;;;;;;;;5072900;28;20054;-60
2022/06/23 01:33:00;;;;;;;71.63;25.67;;;;;;;;;;4966266;28;20533;-61
2022/06/23 01:35:39;;;;;;;82.28;29.60;;;;;;;;;;4952236;29;20102;-60
2022/06/23 01:38:12;;;;;;;87.07;31.55;;;;;;;;;;5002225;28;20037;-60
2022/06/23 01:40:52;;;;;;;90.97;32.45;;;;;;;;;;5064881;28;20032;-58
2022/06/23 01:43:23;;;;;;;92.10;34.17;;;;;;;;;;5069940;28;20067;-58
2022/06/23 01:45:55;;;;;;;93.10;34.53;;;;;;;;;;5055444;28;20407;-61
2022/06/23 01:48:52;;;;;;;88.50;33.33;;;;;;;;;;5060475;28;20032;-60
2022/06/23 01:51:37;;;;;;;84.50;33.35;;;;;;;;;;5051552;28;20036;-60
2022/06/23 01:54:23;;;;;;;79.25;31.75;;;;;;;;;;5052196;28;20090;-58
2022/06/23 01:56:50;;;;;;;75.35;29.58;;;;;;;;;;5052617;28;20033;-60
2022/06/23 01:59:22;;;;;;;82.43;29.08;;;;;;;;;;5053033;28;20047;-60
2022/06/23 02:01:57;;;;;;;73.90;27.55;;;;;;;;;;5052026;28;20072;-61
2022/06/23 02:04:33;;;;;;;68.18;26.80;;;;;;;;;;5052648;28;20041;-58
2022/06/23 02:07:07;;;;;;;60.58;25.38;;;;;;;;;;5062460;28;20080;-57
2022/06/23 02:09:39;;;;;;;72.22;25.70;;;;;;;;;;5059525;28;20033;-58
2022/06/23 02:12:15;;;;;;;69.82;26.08;;;;;;;;;;5072239;28;20051;-61
2022/06/23 02:14:45;;;;;;;72.53;25.80;;;;;;;;;;5068925;28;20040;-61
2022/06/23 02:17:32;;;;;;;65.05;23.63;;;;;;;;;;5070436;28;20028;-61
2022/06/23 02:20:04;;;;;;;62.20;23.52;;;;;;;;;;5048885;28;20583;-60
2022/06/23 02:22:39;;;;;;;61.17;22.42;;;;;;;;;;5060217;28;20040;-57
2022/06/23 02:25:22;;;;;;;62.20;22.38;;;;;;;;;;5057987;28;20033;-56
2022/06/23 02:27:55;;;;;;;58.35;20.50;;;;;;;;;;5058423;28;20028;-58
2022/06/23 02:30:22;;;;;;;56.30;21.00;;;;;;;;;;5060729;28;20028;-57
2022/06/23 02:32:58;;;;;;;47.03;19.48;;;;;;;;;;5061009;28;20017;-57
2022/06/23 02:35:32;;;;;;;54.03;20.17;;;;;;;;;;5063073;28;20024;-57
2022/06/23 02:38:25;;;;;;;49.50;19.13;;;;;;;;;;5071663;28;20099;-55
2022/06/23 02:40:56;;;;;;;41.47;19.25;;;;;;;;;;5067705;28;20402;-58
2022/06/23 02:43:25;;;;;;;46.83;19.58;;;;;;;;;;5064983;28;20029;-51
2022/06/23 02:46:03;;;;;;;48.95;18.52;;;;;;;;;;5062218;28;20035;-56
2022/06/23 02:48:46;;;;;;;46.72;17.58;;;;;;;;;;5052344;28;20361;-55
2022/06/23 02:51:35;;;;;;;47.33;17.42;;;;;;;;;;5051659;28;20052;-58
2022/06/23 02:54:09;;;;;;;41.00;16.80;;;;;;;;;;5005667;28;20087;-55
2022/06/23 02:56:39;;;;;;;41.13;17.35;;;;;;;;;;5051691;28;20048;-59
2022/06/23 02:59:07;;;;;;;42.30;17.02;;;;;;;;;;5051611;28;20029;-57
2022/06/23 03:01:38;;;;;;;40.53;16.20;;;;;;;;;;5051781;28;20044;-58
2022/06/23 03:04:15;;;;;;;46.23;16.50;;;;;;;;;;5051268;28;20108;-56
2022/06/23 03:06:46;;;;;;;37.40;15.85;;;;;;;;;;5050920;28;20354;-54
2022/06/23 03:09:32;;;;;;;41.60;15.73;;;;;;;;;;5051843;28;20025;-59
2022/06/23 03:12:13;;;;;;;38.72;15.10;;;;;;;;;;5051456;28;20264;-56
2022/06/23 03:14:48;;;;;;;32.67;15.10;;;;;;;;;;5052001;28;20021;-56
2022/06/23 03:17:15;;;;;;;35.67;15.55;;;;;;;;;;5033663;28;20025;-53
2022/06/23 03:20:02;;;;;;;35.63;13.88;;;;;;;;;;5051121;28;20057;-59
2022/06/23 03:22:38;;;;;;;35.95;13.77;;;;;;;;;;5050761;28;20040;-59
2022/06/23 03:25:16;;;;;;;32.28;15.07;;;;;;;;;;5051654;28;20075;-58
2022/06/23 03:27:51;;;;;;;40.97;15.05;;;;;;;;;;5051464;28;20494;-59
2022/06/23 03:30:22;;;;;;;36.53;13.95;;;;;;;;;;5052088;28;20024;-57
2022/06/23 03:32:57;;;;;;;32.15;13.23;;;;;;;;;;5051725;28;20059;-55
2022/06/23 03:35:29;;;;;;;32.78;12.48;;;;;;;;;;5052302;28;20021;-57
2022/06/23 03:38:03;;;;;;;28.40;12.45;;;;;;;;;;5051665;28;20116;-55
2022/06/23 03:43:23;;;;;;;28.08;11.90;;;;;;;;;;5051758;28;20404;-58
2022/06/23 03:45:56;;;;;;;30.08;12.02;;;;;;;;;;5051571;28;20060;-56
2022/06/23 03:48:27;;;;;;;23.40;10.88;;;;;;;;;;5051228;28;20033;-57
2022/06/23 03:51:00;;;;;;;29.10;11.52;;;;;;;;;;5051873;28;20494;-57
2022/06/23 03:53:32;;;;;;;37.80;10.68;;;;;;;;;;5051404;28;20037;-58
2022/06/23 03:56:04;;;;;;;28.77;11.10;;;;;;;;;;5051343;28;20560;-57
2022/06/23 03:58:30;;;;;;;25.77;10.57;;;;;;;;;;5051783;28;20021;-58
2022/06/23 04:01:24;;;;;;;25.42;10.18;;;;;;;;;;5050525;28;20037;-57
2022/06/23 04:04:00;;;;;;;25.60;10.65;;;;;;;;;;4997600;28;20037;-56
2022/06/23 04:06:44;;;;;;;27.15;10.32;;;;;;;;;;5050585;28;20033;-56
2022/06/23 04:09:15;;;;;;;21.42;10.13;;;;;;;;;;5051470;28;20103;-58
2022/06/23 04:11:46;;;;;;;22.30;9.80;;;;;;;;;;5033193;28;20124;-58
2022/06/23 04:14:16;;;;;;;24.25;10.85;;;;;;;;;;5033327;28;20028;-58
2022/06/23 04:16:44;;;;;;;23.58;9.63;;;;;;;;;;5051487;28;20498;-58
2022/06/23 04:19:27;;;;;;;24.23;9.98;;;;;;;;;;5050503;28;20032;-57
2022/06/23 04:22:01;;;;;;;27.42;9.85;;;;;;;;;;5051581;28;20091;-58
2022/06/23 04:24:28;;;;;;;22.65;9.23;;;;;;;;;;5051013;28;20028;-57
2022/06/23 04:26:58;;;;;;;20.92;9.25;;;;;;;;;;5050948;28;20131;-58
2022/06/23 04:29:28;;;;;;;20.80;8.85;;;;;;;;;;5050615;28;20542;-57
2022/06/23 04:32:07;;;;;;;18.48;8.75;;;;;;;;;;5051508;28;20474;-57
2022/06/23 04:34:36;;;;;;;18.23;8.20;;;;;;;;;;5055129;28;20475;-57
2022/06/23 04:37:04;;;;;;;18.55;8.18;;;;;;;;;;5054776;28;20087;-59
2022/06/23 04:39:33;;;;;;;19.80;8.70;;;;;;;;;;5055303;28;20032;-59
2022/06/23 04:42:10;;;;;;;16.83;8.30;;;;;;;;;;5054807;28;20547;-58
2022/06/23 04:44:38;;;;;;;20.95;7.82;;;;;;;;;;5036596;28;20029;-59
2022/06/23 04:47:25;;;;;;;19.55;8.02;;;;;;;;;;5055056;28;20483;-60
2022/06/23 04:49:55;;;;;;;18.63;7.82;;;;;;;;;;5054867;28;20065;-59
2022/06/23 04:52:48;;;;;;;18.00;7.85;;;;;;;;;;5054497;28;20078;-60
2022/06/23 04:55:18;;;;;;;15.73;7.78;;;;;;;;;;5051293;28;20559;-59
2022/06/23 04:57:45;;;;;;;13.77;6.90;;;;;;;;;;5054615;28;20387;-59
2022/06/23 05:00:21;;;;;;;16.15;7.30;;;;;;;;;;5054153;28;20040;-59
2022/06/23 05:02:50;;;;;;;13.80;7.13;;;;;;;;;;5055107;28;20495;-58
2022/06/23 05:05:17;;;;;;;17.48;7.40;;;;;;;;;;5054574;28;20059;-60
2022/06/23 05:07:47;;;;;;;15.27;6.50;;;;;;;;;;5036956;28;20025;-58
2022/06/23 05:10:23;;;;;;;15.20;6.90;;;;;;;;;;5054844;28;20033;-59
2022/06/23 05:13:02;;;;;;;15.73;7.28;;;;;;;;;;5054115;28;20025;-60
2022/06/23 05:15:29;;;;;;;13.88;6.45;;;;;;;;;;5036252;28;20740;-59
2022/06/23 05:18:01;;;;;;;12.23;5.97;;;;;;;;;;5054454;28;20503;-59
2022/06/23 05:20:43;;;;;;;14.73;6.47;;;;;;;;;;5054556;28;20021;-59
2022/06/23 05:23:18;;;;;;;11.98;6.93;;;;;;;;;;5054026;28;20033;-59
2022/06/23 05:25:46;;;;;;;14.70;6.63;;;;;;;;;;5053900;28;20029;-59
2022/06/23 05:28:17;;;;;;;15.65;6.38;;;;;;;;;;5054335;28;20025;-59
2022/06/23 05:31:04;;;;;;;13.20;6.25;;;;;;;;;;5053661;28;20074;-59
2022/06/23 05:33:34;;;;;;;11.77;5.72;;;;;;;;;;5054526;28;20509;-60
2022/06/23 05:36:04;;;;;;;10.60;5.60;;;;;;;;;;5053742;28;20032;-59
2022/06/23 05:38:49;;;;;;;13.73;6.07;;;;;;;;;;5054422;28;20036;-59
2022/06/23 05:41:26;;;;;;;12.70;5.95;;;;;;;;;;5054261;28;20056;-59
2022/06/23 05:43:57;;;;;;;15.15;6.63;;;;;;;;;;5052852;28;20021;-60
2022/06/23 05:46:25;;;;;;;13.45;5.78;;;;;;;;;;5053755;28;20037;-59
2022/06/23 05:49:21;;;;;;;15.02;5.57;;;;;;;;;;5053604;28;20025;-60
2022/06/23 05:51:53;;;;;;;11.82;5.45;;;;;;;;;;5037117;28;20073;-57
2022/06/23 05:54:20;;;;;;;;;;;;;;;;;;5054053;28;20067;-59
2022/06/23 05:56:54;;;;;;;12.77;5.05;;;;;;;;;;5053294;28;20371;-59
2022/06/23 05:59:21;;;;;;;11.55;5.28;;;;;;;;;;5053907;28;20031;-59
2022/06/23 06:01:54;;;;;;;11.95;5.05;;;;;;;;;;5052905;28;20045;-59
2022/06/23 06:04:32;;;;;;;10.55;4.88;;;;;;;;;;5053645;28;20550;-59
2022/06/23 06:06:59;;;;;;;10.35;4.75;;;;;;;;;;5053389;28;20032;-59
2022/06/23 06:09:40;;;;;;;8.88;4.63;;;;;;;;;;5053830;28;20063;-60
2022/06/23 06:12:15;;;;;;;12.10;5.30;;;;;;;;;;5052785;28;20095;-59
2022/06/23 06:14:45;;;;;;;11.50;5.25;;;;;;;;;;5053410;28;20093;-59
2022/06/23 06:17:17;;;;;;;10.93;5.18;;;;;;;;;;5034747;28;20115;-59
2022/06/23 06:19:44;;;;;;;10.00;5.35;;;;;;;;;;5053724;28;20025;-59
2022/06/23 06:22:32;;;;;;;11.15;4.88;;;;;;;;;;5053320;28;20048;-59
2022/06/23 06:24:59;;;;;;;7.22;4.10;;;;;;;;;;5053185;28;20025;-59
2022/06/23 06:27:26;;;;;;;9.68;4.47;;;;;;;;;;5053331;28;20035;-59
2022/06/23 06:29:54;;;;;;;7.63;4.10;;;;;;;;;;5052813;28;20391;-60
2022/06/23 06:32:20;;;;;;;9.93;4.28;;;;;;;;;;5053250;28;20417;-59
2022/06/23 06:35:08;;;;;;;8.40;4.28;;;;;;;;;;5053301;28;20036;-59
2022/06/23 06:37:36;;;;;;;10.85;4.82;;;;;;;;;;5011800;28;20040;-60
2022/06/23 06:40:04;;;;;;;8.10;4.25;;;;;;;;;;5035401;28;20068;-59
2022/06/23 06:42:34;;;;;;;6.47;3.80;;;;;;;;;;5052176;28;20041;-59
2022/06/23 06:45:03;;;;;;;9.80;4.20;;;;;;;;;;5053120;28;20033;-59
2022/06/23 06:47:32;;;;;;;9.27;4.22;;;;;;;;;;5053044;28;20045;-58
2022/06/23 06:50:05;;;;;;;7.60;4.07;;;;;;;;;;5052280;28;20108;-59
2022/06/23 06:52:33;;;;;;;8.30;4.00;;;;;;;;;;5052985;28;20426;-59
2022/06/23 06:55:03;;;;;;;7.30;3.70;;;;;;;;;;5051615;28;20719;-59
2022/06/23 06:57:30;;;;;;;8.20;3.60;;;;;;;;;;5052837;28;20487;-59
2022/06/23 07:00:15;;;;;;;8.63;4.00;;;;;;;;;;5052773;28;20652;-59
2022/06/23 07:02:47;;;;;;;9.10;4.00;;;;;;;;;;5052230;28;20059;-59
2022/06/23 07:05:27;;;;;;;9.85;4.10;;;;;;;;;;5052786;28;20028;-59
2022/06/23 07:08:14;;;;;;;7.40;3.72;;;;;;;;;;5052184;28;20028;-59
2022/06/23 07:10:52;;;;;;;7.97;3.58;;;;;;;;;;5051587;28;20153;-59
2022/06/23 07:13:26;;;;;;;7.32;3.90;;;;;;;;;;5052306;28;20029;-56
2022/06/23 07:16:05;;;;;;;7.70;3.67;;;;;;;;;;5052139;28;20033;-59
2022/06/23 07:18:45;;;;;;;6.88;3.75;;;;;;;;;;5052268;28;20029;-57
2022/06/23 07:21:30;;;;;;;5.25;2.88;;;;;;;;;;5051873;28;20109;-58
2022/06/23 07:24:13;;;;;;;8.75;3.50;;;;;;;;;;5052406;28;20124;-58
2022/06/23 07:26:39;;;;;;;7.75;3.63;;;;;;;;;;5051735;28;20033;-58
2022/06/23 07:29:27;;;;;;;9.70;4.03;;;;;;;;;;5051838;28;20052;-58
2022/06/23 07:32:07;;;;;;;5.68;3.25;;;;;;;;;;5051488;28;20059;-59
2022/06/23 07:34:38;;;;;;;8.57;3.63;;;;;;;;;;5051509;28;20029;-60
2022/06/23 07:37:12;;;;;;;7.40;3.40;;;;;;;;;;5052084;28;20104;-59
2022/06/23 07:39:41;;;;;;;8.45;3.55;;;;;;;;;;5051706;28;20502;-60
2022/06/23 07:42:08;;;;;;;5.40;3.10;;;;;;;;;;5051361;28;20419;-60
2022/06/23 07:44:35;;;;;;;5.38;2.85;;;;;;;;;;5051595;28;20124;-59
2022/06/23 07:47:02;;;;;;;3.92;2.65;;;;;;;;;;5051790;28;20033;-60
2022/06/23 07:49:31;;;;;;;6.18;3.20;;;;;;;;;;5051936;28;20036;-59
2022/06/23 07:51:58;;;;;;;6.55;2.75;;;;;;;;;;5051402;28;20025;-59
2022/06/23 07:54:25;;;;;;;5.10;3.17;;;;;;;;;;5051186;28;20029;-59
2022/06/23 07:56:53;;;;;;;5.82;3.13;;;;;;;;;;5052036;28;20084;-59
2022/06/23 07:59:22;;;;;;;5.68;2.75;;;;;;;;;;5051901;28;20104;-59
2022/06/23 08:01:55;;;;;;;6.60;3.03;;;;;;;;;;5050917;28;20055;-60
2022/06/23 08:04:34;;;;;;;7.97;3.05;;;;;;;;;;5050769;28;20021;-59
2022/06/23 08:07:02;;;;;;;6.13;3.08;;;;;;;;;;5051374;28;20487;-59
2022/06/23 08:09:48;;;;;;;8.00;2.72;;;;;;;;;;5051539;28;20021;-59
2022/06/23 08:17:59;;;;;;;6.38;2.95;;;;;;;;;;5052011;28;20064;-60
2022/06/23 08:20:26;;;;;;;5.25;2.53;;;;;;;;;;5051823;28;20442;-57
2022/06/23 08:22:55;;;;;;;4.55;2.78;;;;;;;;;;5051019;28;20029;-58
2022/06/23 08:25:22;;;;;;;4.63;2.75;;;;;;;;;;5051124;28;20503;-60
2022/06/23 08:27:52;;;;;;;4.45;2.40;;;;;;;;;;5033097;28;20104;-59
2022/06/23 08:30:19;;;;;;;6.30;2.50;;;;;;;;;;5051209;28;20025;-60
2022/06/23 08:32:48;;;;;;;5.22;2.28;;;;;;;;;;5050878;28;20368;-60
2022/06/23 08:35:17;;;;;;;6.32;2.97;;;;;;;;;;5051536;28;20403;-59
2022/06/23 08:37:58;;;;;;;5.07;2.20;;;;;;;;;;5050652;28;20033;-59
2022/06/23 08:40:34;;;;;;;5.45;2.67;;;;;;;;;;5051622;28;20028;-59
2022/06/23 08:43:19;;;;;;;4.30;2.03;;;;;;;;;;5051170;28;20582;-60
2022/06/23 08:45:53;;;;;;;5.65;2.38;;;;;;;;;;5050795;28;20033;-60
2022/06/23 08:48:34;;;;;;;5.65;2.30;;;;;;;;;;5050945;28;20025;-60
2022/06/23 08:51:02;;;;;;;4.47;2.10;;;;;;;;;;5050719;28;20021;-59
2022/06/23 08:53:38;;;;;;;4.05;2.05;;;;;;;;;;5051043;28;20021;-59
2022/06/23 08:56:08;;;;;;;5.38;2.40;;;;;;;;;;5051061;28;20056;-60
2022/06/23 08:58:41;;;;;;;5.63;2.47;;;;;;;;;;5051407;28;20048;-59
2022/06/23 09:01:08;;;;;;;4.00;1.85;;;;;;;;;;5050325;28;20053;-60
2022/06/23 09:03:53;;;;;;;3.28;1.70;;;;;;;;;;5051292;28;20096;-60
2022/06/23 09:06:39;;;;;;;3.50;1.90;;;;;;;;;;5050745;28;20096;-59
2022/06/23 09:09:28;;;;;;;4.38;2.30;;;;;;;;;;5050993;28;20021;-60
2022/06/23 09:12:01;;;;;;;3.80;2.13;;;;;;;;;;5050978;28;20021;-60
2022/06/23 09:14:30;;;;;;;4.65;2.08;;;;;;;;;;5050649;28;20120;-60
2022/06/23 09:17:16;;;;;;;5.70;2.17;;;;;;;;;;5050524;28;20032;-60
2022/06/23 09:19:54;;;;;;;4.05;1.63;;;;;;;;;;5052569;28;20078;-60
2022/06/23 09:22:37;;;;;;;4.88;1.95;;;;;;;;;;5054385;28;20064;-58
2022/06/23 09:25:04;;;;;;;3.75;1.98;;;;;;;;;;5054466;28;20025;-59
2022/06/23 09:27:40;;;;;;;9.38;2.13;;;;;;;;;;5053889;28;20067;-59
2022/06/23 09:30:20;;;;;;;8.32;2.60;;;;;;;;;;5036712;28;20402;-60
2022/06/23 09:33:06;;;;;;;5.75;2.33;;;;;;;;;;5036020;28;20533;-56
2022/06/23 09:35:49;;;;;;;9.88;2.95;;;;;;;;;;5053583;28;20028;-59
2022/06/23 09:38:25;;;;;;;11.75;3.42;;;;;;;;;;5052101;28;20056;-59
2022/06/23 09:41:24;;;;;;;11.93;3.20;;;;;;;;;;5066918;28;20028;-57
2022/06/23 09:43:54;;;;;;;9.48;3.63;;;;;;;;;;5018471;28;20117;-59
2022/06/23 09:46:35;;;;;;;8.57;3.33;;;;;;;;;;5053288;28;20074;-59
2022/06/23 09:49:12;;;;;;;13.75;3.25;;;;;;;;;;5053914;28;20383;-57
2022/06/23 09:51:39;;;;;;;10.82;3.40;;;;;;;;;;5049493;28;20479;-56
2022/06/23 09:54:06;;;;;;;9.68;3.42;;;;;;;;;;5072141;28;20025;-58
2022/06/23 09:56:41;;;;;;;7.43;2.85;;;;;;;;;;5054356;28;20067;-56
2022/06/23 09:59:26;;;;;;;9.25;3.30;;;;;;;;;;5053380;28;20025;-56
2022/06/23 10:01:59;;;;;;;7.90;3.30;;;;;;;;;;5036475;28;20059;-59
2022/06/23 10:04:38;;;;;;;8.50;3.00;;;;;;;;;;5071570;28;20498;-59
2022/06/23 10:07:18;;;;;;;8.75;3.20;;;;;;;;;;5073395;28;20082;-61
2022/06/23 10:10:02;;;;;;;9.80;2.90;;;;;;;;;;5072461;28;20031;-65
2022/06/23 10:12:35;;;;;;;6.63;2.90;;;;;;;;;;5072599;28;20441;-62
2022/06/23 10:15:13;;;;;;;7.95;2.70;;;;;;;;;;5071668;28;20666;-61
2022/06/23 10:17:40;;;;;;;8.93;2.47;;;;;;;;;;5072398;28;20514;-61
2022/06/23 10:20:13;;;;;;;7.00;2.95;;;;;;;;;;5072328;28;20033;-59
2022/06/23 10:22:46;;;;;;;7.65;2.40;;;;;;;;;;5071997;28;20036;-62
2022/06/23 10:25:32;;;;;;;5.95;2.65;;;;;;;;;;5071580;28;20028;-66
2022/06/23 10:28:13;;;;;;;4.63;2.55;;;;;;;;;;5072161;28;20028;-62
2022/06/23 10:31:09;;;;;;;5.75;2.50;;;;;;;;;;5064607;28;20627;-62
2022/06/23 10:33:43;;;;;;;6.22;2.55;;;;;;;;;;5037601;28;20035;-62
2022/06/23 10:36:16;;;;;;;9.35;2.38;;;;;;;;;;5071634;28;20036;-63
2022/06/23 10:38:57;;;;;;;7.00;2.25;;;;;;;;;;5072842;28;20040;-64
2022/06/23 10:41:24;;;;;;;8.02;2.65;;;;;;;;;;5070831;28;20045;-59
2022/06/23 10:43:51;;;;;;;10.85;2.88;;;;;;;;;;5069323;28;20505;-64
2022/06/23 10:46:24;;;;;;;6.10;2.47;;;;;;;;;;5058537;28;20037;-66
2022/06/23 10:49:06;;;;;;;5.40;2.20;;;;;;;;;;5051975;28;20376;-60
2022/06/23 10:51:42;;;;;;;6.32;2.20;;;;;;;;;;5051564;28;20029;-62
2022/06/23 10:54:28;;;;;;;8.32;2.25;;;;;;;;;;5051467;28;20032;-62
2022/06/23 10:57:04;;;;;;;6.53;2.30;;;;;;;;;;5051187;28;20071;-63
2022/06/23 10:59:56;;;;;;;8.43;2.67;;;;;;;;;;5051930;28;20025;-60
2022/06/23 11:02:26;;;;;;;8.68;2.17;;;;;;;;;;5051347;28;20052;-59
2022/06/23 11:05:09;;;;;;;7.95;2.17;;;;;;;;;;5051919;28;20495;-59
2022/06/23 11:07:54;;;;;;;11.88;2.28;;;;;;;;;;5050696;28;20068;-67
2022/06/23 11:10:30;;;;;;;8.07;2.42;;;;;;;;;;5052299;28;20032;-66
2022/06/23 11:13:13;;;;;;;5.35;1.90;;;;;;;;;;5051155;28;20036;-66
2022/06/23 11:16:06;;;;;;;6.85;2.05;;;;;;;;;;5050723;28;20029;-64
2022/06/23 11:18:36;;;;;;;10.93;1.90;;;;;;;;;;5020893;28;20045;-66
2022/06/23 11:21:26;;;;;;;8.23;2.38;;;;;;;;;;5051677;28;20029;-66
2022/06/23 11:23:59;;;;;;;7.90;2.22;;;;;;;;;;5015380;28;20033;-66
2022/06/23 11:26:26;;;;;;;7.40;1.80;;;;;;;;;;5051521;28;20419;-66
2022/06/23 11:29:05;;;;;;;7.05;1.70;;;;;;;;;;5052340;28;20036;-66
2022/06/23 11:31:35;;;;;;;8.10;1.98;;;;;;;;;;5051633;28;20024;-66
2022/06/23 11:34:05;;;;;;;7.40;1.90;;;;;;;;;;5034067;28;20572;-66
2022/06/23 11:36:38;;;;;;;4.40;2.00;;;;;;;;;;5051192;28;20021;-66
2022/06/23 11:39:23;;;;;;;8.00;1.77;;;;;;;;;;5052182;28;20024;-66
2022/06/23 11:41:54;;;;;;;7.35;1.80;;;;;;;;;;5050234;28;20033;-66
2022/06/23 11:44:39;;;;;;;9.45;1.73;;;;;;;;;;5056739;28;20020;-61
2022/06/23 11:47:18;;;;;;;5.15;1.73;;;;;;;;;;5054282;28;20025;-61
2022/06/23 11:49:51;;;;;;;7.28;1.83;;;;;;;;;;5051840;28;20476;-61
2022/06/23 11:52:25;;;;;;;6.22;1.98;;;;;;;;;;5051639;28;20481;-61
2022/06/23 11:55:11;;;;;;;6.90;2.00;;;;;;;;;;5051298;28;20024;-61
2022/06/23 11:57:50;;;;;;;8.48;2.00;;;;;;;;;;5051622;28;20609;-61
2022/06/23 12:00:25;;;;;;;4.40;1.95;;;;;;;;;;5051026;28;20032;-61
2022/06/23 12:03:18;;;;;;;4.82;1.67;;;;;;;;;;5051556;28;20102;-61
2022/06/23 12:05:57;;;;;;;4.43;1.77;;;;;;;;;;5025613;28;20044;-67
2022/06/23 12:08:24;;;;;;;4.05;1.70;;;;;;;;;;5053364;28;20063;-61
2022/06/23 12:10:51;;;;;;;5.18;1.63;;;;;;;;;;5068076;28;20501;-66
2022/06/23 12:13:19;;;;;;;8.32;2.35;;;;;;;;;;5068751;28;20073;-66
2022/06/23 12:15:49;;;;;;;9.18;2.00;;;;;;;;;;5071072;28;20406;-66
2022/06/23 12:18:16;;;;;;;7.18;1.70;;;;;;;;;;5064944;28;20025;-64
2022/06/23 12:20:49;;;;;;;9.68;1.92;;;;;;;;;;5050645;28;20086;-64
2022/06/23 12:23:21;;;;;;;10.23;2.20;;;;;;;;;;5063615;28;20052;-59
2022/06/23 12:25:57;;;;;;;8.13;1.90;;;;;;;;;;5057975;28;20434;-64
2022/06/23 12:28:38;;;;;;;9.05;1.65;;;;;;;;;;5050357;28;20078;-63
2022/06/23 12:31:18;;;;;;;9.15;2.00;;;;;;;;;;5032922;28;20041;-64
2022/06/23 12:33:51;;;;;;;7.50;1.80;;;;;;;;;;5066042;28;20052;-64
2022/06/23 12:36:27;;;;;;;6.38;1.88;;;;;;;;;;5062655;28;20029;-63
2022/06/23 12:38:57;;;;;;;10.88;1.80;;;;;;;;;;5071299;28;20020;-63
2022/06/23 12:41:28;;;;;;;6.60;2.00;;;;;;;;;;5070370;28;20029;-63
2022/06/23 12:44:09;;;;;;;10.20;1.80;;;;;;;;;;5053466;28;20577;-62
2022/06/23 12:46:46;;;;;;;5.43;1.80;;;;;;;;;;5070694;28;20029;-63
2022/06/23 12:49:19;;;;;;;6.68;1.80;;;;;;;;;;5070916;28;20082;-64
2022/06/23 12:51:52;;;;;;;4.90;1.85;;;;;;;;;;5070506;28;20128;-64
2022/06/23 12:54:36;;;;;;;10.13;2.22;;;;;;;;;;5072499;28;20028;-65
2022/06/23 12:57:11;;;;;;;9.43;1.80;;;;;;;;;;5070729;28;20082;-65
2022/06/23 12:59:48;;;;;;;8.25;2.22;;;;;;;;;;5073938;28;20025;-65
2022/06/23 13:02:47;;;;;;;9.75;1.90;;;;;;;;;;5073256;28;20051;-60
2022/06/23 13:05:14;;;;;;;6.97;1.75;;;;;;;;;;5030167;28;20028;-61
2022/06/23 13:07:46;;;;;;;8.50;1.83;;;;;;;;;;5071410;28;20031;-60
2022/06/23 13:10:21;;;;;;;7.53;1.60;;;;;;;;;;5062923;28;20020;-65
2022/06/23 13:13:00;;;;;;;9.32;2.08;;;;;;;;;;5059957;28;20318;-61
2022/06/23 13:15:35;;;;;;;8.43;2.53;;;;;;;;;;5053611;28;20021;-60
2022/06/23 13:18:23;;;;;;;6.85;1.92;;;;;;;;;;5058058;28;20108;-60
2022/06/23 13:20:59;;;;;;;5.35;1.90;;;;;;;;;;5060814;28;21383;-61
2022/06/23 13:23:34;;;;;;;5.78;1.55;;;;;;;;;;5066343;28;20048;-64
2022/06/23 13:26:17;;;;;;;10.02;2.08;;;;;;;;;;5066798;28;20029;-60
2022/06/23 13:28:45;;;;;;;12.23;2.00;;;;;;;;;;5049142;28;20494;-64
2022/06/23 13:31:32;;;;;;;8.05;1.95;;;;;;;;;;5065953;28;20048;-65
2022/06/23 13:34:05;;;;;;;13.30;1.95;;;;;;;;;;5066393;28;20044;-65
2022/06/23 13:37:01;;;;;;;15.95;2.17;;;;;;;;;;5052751;28;20029;-60
2022/06/23 13:39:46;;;;;;;7.93;1.90;;;;;;;;;;5017083;28;20035;-64
2022/06/23 13:42:20;;;;;;;6.43;1.83;;;;;;;;;;5069815;28;20046;-65
2022/06/23 13:44:53;;;;;;;16.70;2.30;;;;;;;;;;5044945;28;20063;-62
2022/06/23 13:47:50;;;;;;;11.75;2.10;;;;;;;;;;5067778;28;20109;-64
2022/06/23 13:50:30;;;;;;;8.82;2.05;;;;;;;;;;5054247;28;20368;-61
2022/06/23 13:52:57;;;;;;;9.10;1.80;;;;;;;;;;5066871;28;20067;-65
2022/06/23 13:55:30;;;;;;;9.60;1.80;;;;;;;;;;5067883;28;20024;-60
2022/06/23 13:58:00;;;;;;;7.18;1.67;;;;;;;;;;5048494;28;20029;-65
2022/06/23 14:00:26;;;;;;;7.45;1.77;;;;;;;;;;5061513;28;20024;-60
2022/06/23 14:02:59;;;;;;;8.82;2.00;;;;;;;;;;5068183;28;20052;-65
2022/06/23 14:05:38;;;;;;;9.98;2.22;;;;;;;;;;5056836;28;20487;-66
2022/06/23 14:08:08;;;;;;;10.07;1.80;;;;;;;;;;5062462;28;20040;-65
2022/06/23 14:10:47;;;;;;;9.93;2.30;;;;;;;;;;5063872;28;20028;-65
2022/06/23 14:13:22;;;;;;;13.70;1.60;;;;;;;;;;5062115;28;20021;-60
2022/06/23 14:15:49;;;;;;;13.23;2.00;;;;;;;;;;5060585;28;20086;-64
2022/06/23 14:18:16;;;;;;;10.95;2.60;;;;;;;;;;5065546;28;20116;-60
2022/06/23 14:21:01;;;;;;;17.40;2.92;;;;;;;;;;5069180;28;20020;-65
2022/06/23 14:23:38;;;;;;;13.02;2.80;;;;;;;;;;5066811;28;20032;-65
2022/06/23 14:26:11;;;;;;;13.68;2.95;;;;;;;;;;5067934;28;20032;-61
2022/06/23 14:28:59;;;;;;;16.77;2.45;;;;;;;;;;5067943;28;20486;-61
2022/06/23 14:31:53;;;;;;;13.52;2.40;;;;;;;;;;5068726;28;20546;-60
2022/06/23 14:34:20;;;;;;;16.55;2.67;;;;;;;;;;5065213;28;20407;-60
2022/06/23 14:36:50;;;;;;;12.27;2.45;;;;;;;;;;5066271;28;20024;-60
2022/06/23 14:39:22;;;;;;;10.85;2.63;;;;;;;;;;5065098;28;20028;-60
2022/06/23 14:42:04;;;;;;;21.90;2.72;;;;;;;;;;5067739;28;20056;-65
2022/06/23 14:44:48;;;;;;;14.03;2.20;;;;;;;;;;5063734;28;20029;-66
2022/06/23 14:47:33;;;;;;;37.80;4.30;;;;;;;;;;5050916;28;20047;-63
2022/06/23 14:50:18;;;;;;;18.15;3.50;;;;;;;;;;5067255;28;20103;-62
2022/06/23 14:52:51;;;;;;;16.20;2.95;;;;;;;;;;5055493;28;20091;-62
2022/06/23 14:55:27;;;;;;;19.55;3.25;;;;;;;;;;5068144;28;20370;-59
2022/06/23 14:58:10;;;;;;;19.60;2.92;;;;;;;;;;5064597;28;20031;-63
2022/06/23 15:00:37;;;;;;;19.52;3.17;;;;;;;;;;5062785;28;20036;-58
2022/06/23 15:03:22;;;;;;;18.63;2.95;;;;;;;;;;5064024;28;20036;-59
2022/06/23 15:06:07;;;;;;;30.45;4.18;;;;;;;;;;5059582;28;20033;-63
2022/06/23 15:08:44;;;;;;;29.75;3.88;;;;;;;;;;5057977;28;20037;-59
2022/06/23 15:11:18;;;;;;;20.55;3.03;;;;;;;;;;5061065;28;20024;-59
2022/06/23 15:13:47;;;;;;;20.75;3.85;;;;;;;;;;5061451;28;20445;-59
2022/06/23 15:16:33;;;;;;;23.35;3.92;;;;;;;;;;5062453;28;20479;-60
2022/06/23 15:19:05;;;;;;;18.52;3.97;;;;;;;;;;5063770;28;20036;-64
2022/06/23 15:24:39;;;;;;;21.83;3.65;;;;;;;;;;5066813;28;20036;-64
2022/06/23 15:27:38;;;;;;;20.33;3.70;;;;;;;;;;5052676;28;20697;-60
2022/06/23 15:30:09;;;;;;;15.27;3.45;;;;;;;;;;5011437;28;20135;-59
2022/06/23 15:32:44;;;;;;;17.52;3.05;;;;;;;;;;5059423;28;20383;-64